Relevés horaires Bierset (Belgique)


Relevés horaires à Bierset - Samedi 24 Mars 2018
Heure UTC1 Température [°C] Vent [km/h] Hum. [%] Pres.4 [hPa] Visi. [Km] Nébu. [octa] Préc.5 [mm] Cond.
2m. Res. Ros. Dir.2 Vit. Moy. Raf.3
23:00 6.9 5.5 -0.7 SSE 7.4 7.4 9.3 58 1003.9(0.9/3h) 18 0/8 -- --
22:00 7.1 6.3 1.3 SSE 5.6 5.6 9.3 67 1003.8(1.2/3h) 15 0/8 -- --
21:00 7.3 6.5 1.3 SE 5.6 7.4 16.7 66 1003.3(1.3/3h) 20 0/8 -- --
20:00 6.6 6.6 0.9 ENE 1.9 5.6 5.6 67 1003.1(1.3/3h) 20 0/8 -- --
19:00 7.2 6.4 2.0 NNE 5.6 7.4 9.3 69 1002.6(1.4/3h) 20 1/8 -- --
18:00 9.0 8.4 2.9 N 5.6 9.3 11.1 66 1001.9(1.0/3h) 20 3/8 0/12h
--
17:00 10.8 10.1 3.1 N 7.4 9.3 11.1 59 1001.4(0.4/3h) 25 1/8 -- --
16:00 12.3 12.3 0.6 NE 3.7 5.6 7.4 45 1000.8(-0.1/3h) 35 2/8 -- --
15:00 12.3 12.3 0.7 NNO 1.9 5.6 11.1 45 1000.6(-0.4/3h) 35 1/8 -- --
14:00 11.8 11.8 0.4 E 3.7 3.7 9.3 45 1001(-0.4/3h) 30 3/8 -- --
13:00 11.5 11.5 1.2 NNO 1.9 5.6 11.1 49 1001(-0.7/3h) 30 3/8 -- --
12:00 10.8 10.8 1.2 NNO 3.7 7.4 18.5 51 1001.2(-0.7/3h) 25 3/8 0/6h
--
11:00 9.8 9.8 1.5 ESE 3.7 7.4 11.1 56 1001.5(0.2/3h) 25 3/8 -- --
10:00 8.0 6.8 1.4 SE 7.4 7.4 13.0 63 1002(0.5/3h) 25 5/8 -- --
09:00 6.7 5.8 0.9 ESE 5.6 7.4 18.5 66 1002.2(0.8/3h) 25 6/8 -- --
08:00 5.2 5.2 0.7 ESE 1.9 5.6 7.4 73 1002(0.7/3h) 20 7/8 -- --
07:00 4.0 4.0 0.8 SE 3.7 7.4 13.0 80 1001.8(0.7/3h) 20 7/8 -- --
06:00 3.6 1.7 0.8 ESE 7.4 9.3 13.0 82 1001.6(0.2/3h) 20 7/8 0/12h
--
05:00 3.9 2 0.6 SE 7.4 7.4 13.0 79 1001.5(-0.3/3h) 20 6/8 -- --
04:00 4.0 4.0 0.6 ESE 3.7 5.6 13.0 78 1001.1(-0.8/3h) 20 7/8 -- --
03:00 3.7 3.7 0.8 NNO 3.7 3.7 13.0 81 1001.4(-0.8/3h) 20 6/8 -- --
02:00 3.7 3.7 0.9 SE 3.7 3.7 5.6 82 1001.8(-0.6/3h) 20 6/8 -- --
01:00 3.6 3.6 1.3 ESE 3.7 3.7 11.1 85 1002(-1.0/3h) 20 6/8 -- --
00:00 4.0 4.0 1.5 SSE 3.7 11.1 16.7 84 1002.2(-1.1/3h) 20 6/8 0/6h
trace/24h
--

1 Coordinated Universal Time. Actuellement il est 10:00 locale et 08:00 UTC.

2 Le vent souffle depuis la direction indiquée vers la direction oposée.

3 Les rafales max. sont disponible 40 min après l'heure du relevé.

4 Pour les stations d'altitude (plus de 600m) le géopotentiel du niveau le plus proche de la pression obligatoire est indiqué.

5 Les stations disposant d'un diffuseur peuvent indiquer "trace". Cela signifie que des précipitations ont touchés le sol mais que la quantité est inférieure à 0.1 mm.

Récapitulatif de la journée
Température [°C] Vent [km/h] Ensoleillement4 [h] Precipitations totale5 [mm] Pression [Hpa]
Min1 Max.2 Moy.3 Max. Min Max.
3.6 13.1 6.7 18.5 0 h 0 min 0 1000.6 1003.9

1 Température minimale relevée entre 18:00 UTC la veille et 18:00 UTC le jour donné.

2 Température maximale relevée entre 06:00 UTC le jour donné et 06:00 UTC le lendemain.

3 Vent moyen de la journée basé sur les relevés horaires.

4 Ensoleillement en heures relevé entre 06:00 UTC la veille et 06:00 UTC le jour donné.

5 Précipitations totales tombées entre 06:00 UTC la jour donné et 06:00 UTC le lendemain.

Graphiques horaires